Afton, Texas
Current Conditions -  °F | °C
As of 1:53 PM on Thursday 18 Dec 2014 (Local Time) from KCDS Reporting Station
Overcast Overcast  
Wind Chill: 40°   Ceiling: 1300
Heat Index: 44°   Visibility: 10mi
Dew Point: 38°   Wind: 8mph
Humidity: 79%   Direction: 360°N
Pressure: 30.12"   Gusts: NA
Location:  33.76°N, 100.82°W
Report Text: KCDS 181953Z AUTO 36007KT 10SM OVC013 07/03 A3012 RMK AO2 SLP200 T00670033
Loading
Personal Weather Stations






























Interactive Weather Map New forecast layout! Learn more

10-Day Weather Forecast

Advertisements
Track Severe Weather on mobile